createdAt,value
2022-12-27T00:00:51.881Z,100.00
2022-12-27T00:03:18.848Z,100.00
2022-12-27T00:05:46.666Z,100.00
2022-12-27T00:08:13.408Z,100.00
2022-12-27T00:10:40.367Z,100.00
2022-12-27T00:13:06.787Z,100.00
2022-12-27T00:15:34.347Z,100.00
2022-12-27T00:18:00.814Z,100.00
2022-12-27T00:20:27.279Z,100.00
2022-12-27T00:22:53.682Z,100.00
2022-12-27T00:25:20.114Z,100.00
2022-12-27T00:27:46.603Z,100.00
2022-12-27T00:30:13.117Z,100.00
2022-12-27T00:32:39.594Z,100.00
2022-12-27T00:35:06.310Z,100.00
2022-12-27T00:37:32.754Z,100.00
2022-12-27T00:39:59.612Z,100.00
2022-12-27T00:42:26.040Z,100.00
2022-12-27T00:44:52.482Z,100.00
2022-12-27T00:47:18.931Z,100.00
2022-12-27T00:49:45.373Z,100.00
2022-12-27T00:52:11.816Z,100.00
2022-12-27T00:54:38.509Z,100.00
2022-12-27T00:57:04.960Z,100.00
2022-12-27T00:59:31.437Z,100.00
2022-12-27T01:01:57.962Z,100.00
2022-12-27T01:04:24.488Z,100.00
2022-12-27T01:06:50.910Z,100.00
2022-12-27T01:09:17.364Z,100.00
2022-12-27T01:11:43.834Z,100.00
2022-12-27T01:14:10.263Z,100.00
2022-12-27T01:16:37.822Z,100.00
2022-12-27T01:19:04.338Z,100.00
2022-12-27T01:21:31.030Z,100.00
2022-12-27T01:23:58.157Z,100.00
2022-12-27T01:26:24.762Z,100.00
2022-12-27T01:28:51.809Z,100.00
2022-12-27T01:31:20.136Z,100.00
2022-12-27T01:33:46.822Z,100.00
2022-12-27T01:36:15.702Z,100.00
2022-12-27T01:38:45.483Z,100.00
2022-12-27T01:41:49.551Z,100.00
2022-12-27T01:44:34.498Z,100.00
2022-12-27T01:47:02.215Z,100.00
2022-12-27T01:49:28.736Z,100.00
2022-12-27T01:51:55.446Z,100.00
2022-12-27T01:54:21.950Z,100.00
2022-12-27T01:56:48.435Z,100.00
2022-12-27T01:59:15.023Z,100.00
2022-12-27T02:01:46.633Z,100.00
2022-12-27T02:04:18.817Z,100.00
2022-12-27T02:06:46.355Z,100.00
2022-12-27T02:09:18.914Z,100.00
2022-12-27T02:11:52.537Z,100.00
2022-12-27T02:14:31.271Z,100.00
2022-12-27T02:16:59.440Z,100.00
2022-12-27T02:19:35.222Z,100.00
2022-12-27T02:22:07.781Z,100.00
2022-12-27T02:24:52.951Z,100.00
2022-12-27T02:27:32.375Z,100.00
2022-12-27T02:30:06.515Z,100.00
2022-12-27T02:32:51.564Z,100.00
2022-12-27T02:35:32.357Z,100.00
2022-12-27T02:38:02.564Z,100.00
2022-12-27T02:40:50.069Z,100.00
2022-12-27T02:43:35.461Z,100.00
2022-12-27T02:46:22.999Z,100.00
2022-12-27T02:49:12.329Z,100.00
2022-12-27T02:52:17.611Z,100.00
2022-12-27T02:55:03.606Z,100.00
2022-12-27T02:57:39.055Z,100.00
2022-12-27T03:00:24.291Z,100.00
2022-12-27T03:03:28.655Z,100.00
2022-12-27T03:06:29.015Z,100.00
2022-12-27T03:08:58.255Z,100.00
2022-12-27T03:11:45.284Z,100.00
2022-12-27T03:14:56.434Z,100.00
2022-12-27T03:17:33.422Z,100.00
2022-12-27T03:20:22.730Z,100.00
2022-12-27T03:23:09.011Z,100.00
2022-12-27T03:25:36.277Z,100.00
2022-12-27T03:28:41.075Z,100.00
2022-12-27T03:31:29.963Z,100.00
2022-12-27T03:34:04.556Z,100.00
2022-12-27T03:36:52.149Z,100.00
2022-12-27T03:39:18.872Z,100.00
2022-12-27T03:42:06.845Z,100.00
2022-12-27T03:44:33.383Z,100.00
2022-12-27T03:47:03.903Z,100.00
2022-12-27T03:49:41.525Z,100.00
2022-12-27T03:52:13.925Z,100.00
2022-12-27T03:54:41.258Z,100.00
2022-12-27T03:57:18.457Z,100.00
2022-12-27T03:59:44.928Z,100.00
2022-12-27T04:02:12.135Z,100.00
2022-12-27T04:04:38.834Z,100.00
2022-12-27T04:07:05.386Z,100.00
2022-12-27T04:09:50.590Z,100.00
2022-12-27T04:12:35.627Z,100.00
2022-12-27T04:15:20.515Z,100.00
2022-12-27T04:18:05.505Z,100.00
2022-12-27T04:20:50.444Z,100.00
2022-12-27T04:23:35.392Z,100.00
2022-12-27T04:26:20.243Z,100.00
2022-12-27T04:29:05.044Z,100.00
2022-12-27T04:31:49.997Z,100.00
2022-12-27T04:34:34.908Z,100.00
2022-12-27T04:37:01.410Z,100.00
2022-12-27T04:39:27.889Z,100.00
2022-12-27T04:42:13.123Z,100.00
2022-12-27T04:44:58.252Z,100.00
2022-12-27T04:47:43.658Z,100.00
2022-12-27T04:50:34.969Z,100.00
2022-12-27T04:53:19.803Z,100.00
2022-12-27T04:55:46.246Z,100.00
2022-12-27T04:58:12.657Z,100.00
2022-12-27T05:00:57.564Z,100.00
2022-12-27T05:03:24.502Z,100.00
2022-12-27T05:05:51.612Z,100.00
2022-12-27T05:08:37.587Z,100.00
2022-12-27T05:11:22.622Z,100.00
2022-12-27T05:14:01.021Z,100.00
2022-12-27T05:16:27.572Z,100.00
2022-12-27T05:18:54.109Z,100.00
2022-12-27T05:21:20.656Z,100.00
2022-12-27T05:24:06.059Z,100.00
2022-12-27T05:26:33.133Z,100.00
2022-12-27T05:28:59.928Z,100.00
2022-12-27T05:31:27.713Z,100.00
2022-12-27T05:33:54.596Z,100.00
2022-12-27T05:36:21.082Z,100.00
2022-12-27T05:38:47.562Z,100.00
2022-12-27T05:41:14.488Z,100.00
2022-12-27T05:43:41.002Z,100.00
2022-12-27T05:46:08.872Z,100.00
2022-12-27T05:48:35.737Z,100.00
2022-12-27T05:51:06.265Z,100.00
2022-12-27T05:53:32.819Z,100.00
2022-12-27T05:55:59.398Z,100.00
2022-12-27T05:58:26.205Z,100.00
2022-12-27T06:00:52.703Z,100.00
2022-12-27T06:03:19.351Z,100.00
2022-12-27T06:05:45.881Z,100.00
2022-12-27T06:08:12.336Z,100.00
2022-12-27T06:10:38.803Z,100.00
2022-12-27T06:13:05.654Z,100.00
2022-12-27T06:15:32.130Z,100.00
2022-12-27T06:17:59.267Z,100.00
2022-12-27T06:20:25.734Z,100.00
2022-12-27T06:22:52.137Z,100.00
2022-12-27T06:25:18.606Z,100.00
2022-12-27T06:27:45.091Z,100.00
2022-12-27T06:30:12.353Z,100.00
2022-12-27T06:32:38.830Z,100.00
2022-12-27T06:35:05.456Z,100.00
2022-12-27T06:37:31.883Z,100.00
2022-12-27T06:39:58.353Z,100.00
2022-12-27T06:42:24.806Z,100.00
2022-12-27T06:44:51.232Z,100.00
2022-12-27T06:47:17.698Z,100.00
2022-12-27T06:49:44.463Z,100.00
2022-12-27T06:52:10.901Z,100.00
2022-12-27T06:54:37.387Z,100.00
2022-12-27T06:57:03.829Z,100.00
2022-12-27T06:59:30.262Z,100.00
2022-12-27T07:01:56.880Z,100.00
2022-12-27T07:04:23.469Z,100.00
2022-12-27T07:06:49.925Z,100.00
2022-12-27T07:09:16.409Z,100.00
2022-12-27T07:11:42.833Z,100.00
2022-12-27T07:14:09.776Z,100.00
2022-12-27T07:16:36.545Z,100.00
2022-12-27T07:19:03.027Z,100.00
2022-12-27T07:21:29.852Z,100.00
2022-12-27T07:23:56.725Z,100.00
2022-12-27T07:26:26.893Z,100.00
2022-12-27T07:28:54.355Z,100.00
2022-12-27T07:31:23.106Z,100.00
2022-12-27T07:33:49.952Z,100.00
2022-12-27T07:36:18.078Z,100.00
2022-12-27T07:38:45.129Z,100.00
2022-12-27T07:41:12.469Z,100.00
2022-12-27T07:43:38.966Z,100.00
2022-12-27T07:46:06.406Z,100.00
2022-12-27T07:48:33.137Z,100.00
2022-12-27T07:50:59.679Z,100.00
2022-12-27T07:53:26.135Z,100.00
2022-12-27T07:55:53.840Z,100.00
2022-12-27T07:58:20.640Z,100.00
2022-12-27T08:00:48.287Z,100.00
2022-12-27T08:03:14.989Z,100.00
2022-12-27T08:05:53.043Z,100.00
2022-12-27T08:08:21.490Z,100.00
2022-12-27T08:10:47.943Z,100.00
2022-12-27T08:13:14.759Z,100.00
2022-12-27T08:15:42.100Z,100.00
2022-12-27T08:18:08.630Z,100.00
2022-12-27T08:20:35.222Z,100.00
2022-12-27T08:23:01.734Z,100.00
2022-12-27T08:25:28.874Z,100.00
2022-12-27T08:28:04.944Z,100.00
2022-12-27T08:30:31.727Z,100.00
2022-12-27T08:32:58.461Z,100.00
2022-12-27T08:35:51.717Z,100.00
2022-12-27T08:38:11.538Z,100.00
2022-12-27T08:40:41.769Z,100.00
2022-12-27T08:43:08.314Z,100.00
2022-12-27T08:45:35.608Z,100.00
2022-12-27T08:48:02.485Z,100.00
2022-12-27T08:50:29.372Z,98.82
2022-12-27T08:53:00.009Z,100.00
2022-12-27T08:55:27.567Z,100.00
2022-12-27T08:58:00.881Z,100.00
2022-12-27T09:00:27.798Z,99.52
2022-12-27T09:02:54.620Z,98.98
2022-12-27T09:05:22.140Z,98.44
2022-12-27T09:07:48.709Z,97.72
2022-12-27T09:10:15.468Z,98.96
2022-12-27T09:12:41.941Z,99.49
2022-12-27T09:15:08.918Z,99.79
2022-12-27T09:17:37.467Z,99.72
2022-12-27T09:20:04.756Z,100.00
2022-12-27T09:22:31.333Z,98.88
2022-12-27T09:24:57.811Z,99.08
2022-12-27T09:27:24.339Z,99.02
2022-12-27T09:29:50.764Z,99.08
2022-12-27T09:32:17.243Z,99.07
2022-12-27T09:34:43.936Z,99.25
2022-12-27T09:37:11.197Z,99.40
2022-12-27T09:39:37.985Z,99.18
2022-12-27T09:42:49.654Z,98.54
2022-12-27T09:45:42.066Z,99.04
2022-12-27T09:48:18.013Z,99.21
2022-12-27T09:50:50.525Z,99.19
2022-12-27T09:53:17.660Z,98.16
2022-12-27T09:55:52.112Z,97.21
2022-12-27T09:58:56.949Z,97.38
2022-12-27T10:01:31.907Z,98.10
2022-12-27T10:03:59.187Z,98.15
2022-12-27T10:06:28.395Z,97.54
2022-12-27T10:08:57.834Z,97.53
2022-12-27T10:11:50.598Z,97.38
2022-12-27T10:14:35.864Z,96.46
2022-12-27T10:17:08.293Z,96.81
2022-12-27T10:19:43.763Z,96.59
2022-12-27T10:22:16.163Z,95.37
2022-12-27T10:24:53.695Z,95.07
2022-12-27T10:27:27.042Z,90.52
2022-12-27T10:29:54.610Z,90.36
2022-12-27T10:32:21.159Z,89.90
2022-12-27T10:35:00.021Z,89.12
2022-12-27T10:37:26.805Z,88.79
2022-12-27T10:39:53.237Z,87.19
2022-12-27T10:42:28.795Z,86.59
2022-12-27T10:45:14.182Z,86.47
2022-12-27T10:47:40.769Z,85.73
2022-12-27T10:50:13.345Z,86.35
2022-12-27T10:52:39.936Z,85.04
2022-12-27T10:55:26.372Z,84.54
2022-12-27T10:57:54.014Z,82.22
2022-12-27T11:00:21.542Z,80.57
2022-12-27T11:02:50.822Z,81.98
2022-12-27T11:05:21.633Z,82.92
2022-12-27T11:07:48.104Z,80.10
2022-12-27T11:10:16.812Z,80.17
2022-12-27T11:13:00.363Z,80.68
2022-12-27T11:15:27.289Z,80.53
2022-12-27T11:17:54.893Z,81.40
2022-12-27T11:20:21.441Z,81.28
2022-12-27T11:22:53.706Z,81.61
2022-12-27T11:25:21.462Z,82.04
2022-12-27T11:27:50.665Z,82.35
2022-12-27T11:30:38.525Z,82.25
2022-12-27T11:33:25.246Z,82.48
2022-12-27T11:35:52.797Z,82.48
2022-12-27T11:38:26.552Z,83.59
2022-12-27T11:41:02.369Z,84.96
2022-12-27T11:43:32.245Z,85.46
2022-12-27T11:46:00.665Z,84.50
2022-12-27T11:48:30.985Z,84.03
2022-12-27T11:51:04.372Z,85.55
2022-12-27T11:54:02.989Z,85.53
2022-12-27T11:56:34.720Z,84.78
2022-12-27T11:59:19.938Z,84.19
2022-12-27T12:01:49.486Z,84.19
2022-12-27T12:04:37.911Z,83.11
2022-12-27T12:07:10.505Z,82.77
2022-12-27T12:09:55.940Z,82.21
2022-12-27T12:12:25.435Z,82.67
2022-12-27T12:15:10.541Z,82.96
2022-12-27T12:17:46.255Z,82.95
2022-12-27T12:20:15.854Z,83.23
2022-12-27T12:22:55.865Z,81.12
2022-12-27T12:25:45.347Z,80.86
2022-12-27T12:28:47.404Z,81.71
2022-12-27T12:31:19.903Z,81.73
2022-12-27T12:33:49.284Z,80.91
2022-12-27T12:36:34.436Z,80.36
2022-12-27T12:39:07.105Z,81.64
2022-12-27T12:41:49.676Z,79.83
2022-12-27T12:44:16.093Z,81.73
2022-12-27T12:47:01.314Z,81.71
2022-12-27T12:49:46.542Z,81.65
2022-12-27T12:52:22.196Z,81.44
2022-12-27T12:54:48.630Z,80.68
2022-12-27T12:57:18.036Z,80.94
2022-12-27T13:00:09.318Z,81.28
2022-12-27T13:02:38.667Z,78.83
2022-12-27T13:05:11.674Z,79.24
2022-12-27T13:07:41.432Z,79.28
2022-12-27T13:10:13.705Z,77.95
2022-12-27T13:12:52.302Z,77.38
2022-12-27T13:15:24.013Z,75.21
2022-12-27T13:18:02.642Z,73.52
2022-12-27T13:20:29.089Z,74.70
2022-12-27T13:23:07.301Z,74.57
2022-12-27T13:25:51.866Z,74.31
2022-12-27T13:28:27.445Z,75.83
2022-12-27T13:31:06.560Z,75.77
2022-12-27T13:33:46.098Z,74.17
2022-12-27T13:36:20.912Z,72.25
2022-12-27T13:39:06.198Z,73.59
2022-12-27T13:41:38.353Z,74.47
2022-12-27T13:44:04.809Z,74.20
2022-12-27T13:46:42.100Z,74.02
2022-12-27T13:49:15.258Z,75.83
2022-12-27T13:51:44.181Z,75.11
2022-12-27T13:54:16.664Z,75.04
2022-12-27T13:57:01.791Z,75.08
2022-12-27T13:59:47.266Z,73.79
2022-12-27T14:02:20.041Z,73.95
2022-12-27T14:04:59.015Z,73.82
2022-12-27T14:07:44.451Z,74.61
2022-12-27T14:10:15.048Z,74.56
2022-12-27T14:12:51.879Z,75.01
2022-12-27T14:15:22.253Z,76.09
2022-12-27T14:17:57.970Z,74.94
2022-12-27T14:20:30.186Z,76.74
2022-12-27T14:22:56.598Z,77.74
2022-12-27T14:25:41.466Z,78.30
2022-12-27T14:28:24.486Z,78.87
2022-12-27T14:30:50.986Z,80.36
2022-12-27T14:33:36.216Z,80.56
2022-12-27T14:36:02.799Z,81.15
2022-12-27T14:38:47.943Z,81.77
2022-12-27T14:41:23.447Z,82.71
2022-12-27T14:44:10.486Z,83.60
2022-12-27T14:46:40.443Z,83.06
2022-12-27T14:49:25.325Z,84.13
2022-12-27T14:52:07.239Z,84.10
2022-12-27T14:55:03.596Z,85.05
2022-12-27T14:57:36.012Z,85.21
2022-12-27T15:00:14.519Z,86.60
2022-12-27T15:02:47.633Z,86.86
2022-12-27T15:05:37.516Z,87.16
2022-12-27T15:08:04.059Z,87.04
2022-12-27T15:10:45.827Z,87.34
2022-12-27T15:13:15.349Z,87.21
2022-12-27T15:15:48.082Z,87.45
2022-12-27T15:18:31.617Z,87.24
2022-12-27T15:21:15.193Z,87.53
2022-12-27T15:23:47.704Z,88.27
2022-12-27T15:26:23.270Z,88.11
2022-12-27T15:28:52.905Z,88.41
2022-12-27T15:31:19.410Z,88.71
2022-12-27T15:33:57.779Z,88.52
2022-12-27T15:36:37.547Z,89.05
2022-12-27T15:39:04.210Z,88.57
2022-12-27T15:41:48.308Z,89.00
2022-12-27T15:44:29.822Z,88.76
2022-12-27T15:47:02.235Z,89.14
2022-12-27T15:49:55.157Z,88.58
2022-12-27T15:52:21.588Z,89.18
2022-12-27T15:55:06.629Z,89.13
2022-12-27T15:57:33.056Z,89.01
2022-12-27T16:00:05.625Z,89.25
2022-12-27T16:02:33.684Z,88.26
2022-12-27T16:05:00.363Z,88.38
2022-12-27T16:07:42.052Z,88.85
2022-12-27T16:10:27.143Z,88.75
2022-12-27T16:13:16.845Z,88.55
2022-12-27T16:15:44.650Z,87.96
2022-12-27T16:18:17.864Z,87.00
2022-12-27T16:20:59.676Z,88.01
2022-12-27T16:23:32.282Z,88.19
2022-12-27T16:26:03.173Z,88.24
2022-12-27T16:28:30.825Z,87.57
2022-12-27T16:31:01.923Z,87.63
2022-12-27T16:33:29.216Z,86.92
2022-12-27T16:36:14.449Z,86.33
2022-12-27T16:38:53.082Z,85.29
2022-12-27T16:41:19.534Z,86.13
2022-12-27T16:43:49.063Z,86.29
2022-12-27T16:46:19.586Z,86.06
2022-12-27T16:48:46.031Z,86.18
2022-12-27T16:51:33.114Z,86.31
2022-12-27T16:54:03.275Z,85.59
2022-12-27T16:56:32.475Z,85.95
2022-12-27T16:58:59.156Z,86.01
2022-12-27T17:01:25.777Z,85.99
2022-12-27T17:03:52.901Z,85.75
2022-12-27T17:06:31.923Z,85.66
2022-12-27T17:09:08.518Z,84.28
2022-12-27T17:11:39.312Z,85.14
2022-12-27T17:14:11.784Z,85.39
2022-12-27T17:16:42.971Z,83.75
2022-12-27T17:19:19.109Z,84.74
2022-12-27T17:21:46.029Z,85.50
2022-12-27T17:24:18.004Z,85.44
2022-12-27T17:26:44.759Z,85.59
2022-12-27T17:29:30.437Z,85.97
2022-12-27T17:31:57.236Z,86.50
2022-12-27T17:34:36.944Z,86.27
2022-12-27T17:37:15.828Z,86.69
2022-12-27T17:40:01.201Z,86.33
2022-12-27T17:42:53.599Z,86.47
2022-12-27T17:45:31.089Z,86.04
2022-12-27T17:48:23.210Z,85.76
2022-12-27T17:50:54.743Z,86.29
2022-12-27T17:53:41.492Z,86.89
2022-12-27T17:56:26.805Z,85.89
2022-12-27T17:59:02.279Z,85.71
2022-12-27T18:01:30.347Z,85.45
2022-12-27T18:03:57.061Z,85.46
2022-12-27T18:06:23.675Z,84.98
2022-12-27T18:08:50.399Z,85.00
2022-12-27T18:11:17.044Z,84.79
2022-12-27T18:13:48.854Z,84.24
2022-12-27T18:16:21.416Z,84.04
2022-12-27T18:18:49.163Z,84.47
2022-12-27T18:21:23.391Z,83.80
2022-12-27T18:23:52.812Z,82.50
2022-12-27T18:26:20.579Z,82.56
2022-12-27T18:28:49.628Z,82.20
2022-12-27T18:31:28.208Z,82.60
2022-12-27T18:34:12.331Z,82.46
2022-12-27T18:36:48.067Z,80.98
2022-12-27T18:39:26.087Z,80.06
2022-12-27T18:41:53.573Z,79.96
2022-12-27T18:44:27.671Z,79.92
2022-12-27T18:46:57.467Z,79.58
2022-12-27T18:49:31.957Z,79.51
2022-12-27T18:51:58.713Z,79.96
2022-12-27T18:54:28.677Z,80.31
2022-12-27T18:56:59.919Z,80.48
2022-12-27T18:59:28.873Z,81.23
2022-12-27T19:02:00.539Z,81.35
2022-12-27T19:04:27.511Z,81.31
2022-12-27T19:06:56.419Z,81.11
2022-12-27T19:09:25.681Z,81.00
2022-12-27T19:11:53.468Z,79.72
2022-12-27T19:14:20.912Z,79.19
2022-12-27T19:16:52.816Z,78.54
2022-12-27T19:19:22.701Z,78.73
2022-12-27T19:21:49.283Z,79.12
2022-12-27T19:24:27.915Z,78.92
2022-12-27T19:26:55.082Z,79.39
2022-12-27T19:29:22.972Z,79.88
2022-12-27T19:31:54.791Z,80.02
2022-12-27T19:34:21.615Z,79.93
2022-12-27T19:36:48.726Z,80.10
2022-12-27T19:39:21.303Z,80.74
2022-12-27T19:41:48.431Z,79.71
2022-12-27T19:44:15.151Z,79.86
2022-12-27T19:46:41.695Z,80.25
2022-12-27T19:49:40.131Z,81.00
2022-12-27T19:51:55.784Z,80.59
2022-12-27T19:54:24.804Z,81.31
2022-12-27T19:56:51.603Z,79.87
2022-12-27T19:59:19.536Z,80.71
2022-12-27T20:01:46.190Z,80.47
2022-12-27T20:04:13.623Z,80.52
2022-12-27T20:06:41.533Z,80.55
2022-12-27T20:09:15.389Z,81.17
2022-12-27T20:11:42.220Z,80.60
2022-12-27T20:14:08.764Z,80.81
2022-12-27T20:16:35.271Z,81.00
2022-12-27T20:19:03.024Z,81.23
2022-12-27T20:21:30.071Z,80.30
2022-12-27T20:23:56.559Z,80.25
2022-12-27T20:26:24.218Z,80.54
2022-12-27T20:28:51.438Z,80.67
2022-12-27T20:31:19.479Z,80.07
2022-12-27T20:33:50.159Z,79.70
2022-12-27T20:36:16.882Z,80.56
2022-12-27T20:38:44.094Z,79.49
2022-12-27T20:41:14.705Z,80.16
2022-12-27T20:43:41.830Z,80.55
2022-12-27T20:46:10.762Z,81.28
2022-12-27T20:48:38.476Z,81.30
2022-12-27T20:51:06.208Z,81.22
2022-12-27T20:53:32.887Z,80.04
2022-12-27T20:56:00.667Z,80.33
2022-12-27T20:58:27.230Z,80.48
2022-12-27T21:00:53.884Z,80.62
2022-12-27T21:03:20.894Z,80.79
2022-12-27T21:05:47.463Z,80.45
2022-12-27T21:08:14.076Z,80.82
2022-12-27T21:10:40.837Z,80.42
2022-12-27T21:13:07.979Z,80.92
2022-12-27T21:15:40.404Z,80.40
2022-12-27T21:18:09.142Z,80.33
2022-12-27T21:20:35.639Z,80.89
2022-12-27T21:23:02.112Z,80.76
2022-12-27T21:25:28.639Z,80.72
2022-12-27T21:27:55.067Z,80.71
2022-12-27T21:30:21.817Z,81.21
2022-12-27T21:32:48.267Z,80.92
2022-12-27T21:35:14.940Z,80.44
2022-12-27T21:37:41.373Z,80.75
2022-12-27T21:40:08.071Z,81.15
2022-12-27T21:42:34.545Z,81.48
2022-12-27T21:45:01.013Z,81.62
2022-12-27T21:47:29.244Z,81.20
2022-12-27T21:49:56.030Z,81.37
2022-12-27T21:52:22.530Z,82.41
2022-12-27T21:54:48.972Z,82.01
2022-12-27T21:57:15.400Z,82.33
2022-12-27T21:59:41.850Z,82.41
2022-12-27T22:02:08.832Z,82.51
2022-12-27T22:04:35.413Z,82.92
2022-12-27T22:07:01.861Z,83.01
2022-12-27T22:09:28.303Z,83.76
2022-12-27T22:11:54.746Z,82.93
2022-12-27T22:14:25.388Z,83.07
2022-12-27T22:16:52.464Z,82.37
2022-12-27T22:19:18.973Z,82.96
2022-12-27T22:21:45.426Z,82.39
2022-12-27T22:24:13.026Z,82.13
2022-12-27T22:26:39.616Z,82.85
2022-12-27T22:29:07.026Z,82.63
2022-12-27T22:31:35.429Z,83.36
2022-12-27T22:34:03.458Z,83.46
2022-12-27T22:36:30.039Z,83.93
2022-12-27T22:38:57.256Z,84.07
2022-12-27T22:41:31.297Z,84.29
2022-12-27T22:43:58.867Z,85.43
2022-12-27T22:46:25.858Z,85.37
2022-12-27T22:48:53.514Z,86.14
2022-12-27T22:51:21.386Z,85.53
2022-12-27T22:53:48.580Z,86.04
2022-12-27T22:56:19.778Z,85.99
2022-12-27T22:58:46.742Z,85.50
2022-12-27T23:01:14.571Z,86.03
2022-12-27T23:03:41.563Z,86.19
2022-12-27T23:06:08.082Z,86.18
2022-12-27T23:08:36.125Z,86.57
2022-12-27T23:11:03.739Z,86.83
2022-12-27T23:13:30.180Z,86.18
2022-12-27T23:16:00.400Z,86.72
2022-12-27T23:18:28.124Z,87.29
2022-12-27T23:21:22.981Z,86.91
2022-12-27T23:23:42.234Z,87.17
2022-12-27T23:26:10.521Z,87.59
2022-12-27T23:28:38.034Z,87.31
2022-12-27T23:31:05.021Z,87.19
2022-12-27T23:33:31.560Z,87.00
2022-12-27T23:35:58.075Z,87.11
2022-12-27T23:38:24.570Z,87.04
2022-12-27T23:40:58.296Z,87.52
2022-12-27T23:46:11.372Z,87.68
2022-12-27T23:48:37.951Z,87.17
2022-12-27T23:51:04.490Z,88.04
2022-12-27T23:53:31.413Z,87.84
2022-12-27T23:55:58.902Z,87.41
2022-12-27T23:58:25.557Z,87.55
